Time;durP1;ratioP1;P1;durP2;ratioP2;P2;SDS_P1;SDS_P2;PMS_P1;PMS_P2;Temp;Humidity;BMP_temperature;BMP_pressure;BME280_temperature;BME280_humidity;BME280_pressure;Samples;Min_cycle;Max_cycle;Signal;HPM_P1;HPM_P2
2024/02/29 00:01:25;;;;;;;83.85;39.85;;;6.10;99.90;;;;;;5010052;28;20236;-71
2024/02/29 00:03:52;;;;;;;74.43;40.75;;;6.10;99.90;;;;;;5013440;28;20225;-70
2024/02/29 00:06:19;;;;;;;76.85;39.08;;;6.10;99.90;;;;;;5012577;28;20295;-72
2024/02/29 00:08:47;;;;;;;64.85;36.22;;;6.10;99.90;;;;;;5009847;28;20302;-69
2024/02/29 00:11:14;;;;;;;66.78;37.47;;;6.20;99.90;;;;;;5011202;28;20647;-71
2024/02/29 00:13:41;;;;;;;68.32;36.85;;;6.20;99.90;;;;;;5015527;28;20274;-71
2024/02/29 00:16:08;;;;;;;69.85;33.90;;;6.20;99.90;;;;;;5011922;28;20232;-72
2024/02/29 00:18:35;;;;;;;76.22;40.15;;;6.30;99.90;;;;;;5013474;28;20618;-74
2024/02/29 00:21:02;;;;;;;71.10;38.50;;;6.30;99.90;;;;;;5010981;28;20622;-70
2024/02/29 00:23:29;;;;;;;64.75;37.20;;;6.30;99.90;;;;;;5004545;28;20265;-71
2024/02/29 00:25:57;;;;;;;69.20;39.97;;;6.30;99.90;;;;;;5006652;28;20607;-70
2024/02/29 00:28:24;;;;;;;71.68;37.40;;;6.30;99.90;;;;;;5006356;28;20237;-73
2024/02/29 00:30:52;;;;;;;81.25;40.15;;;6.30;99.90;;;;;;5014537;28;20237;-70
2024/02/29 00:33:19;;;;;;;63.63;34.38;;;6.30;99.90;;;;;;5008743;28;20249;-71
2024/02/29 00:35:46;;;;;;;69.78;36.20;;;6.20;99.90;;;;;;5013855;28;20237;-71
2024/02/29 00:38:13;;;;;;;73.03;36.88;;;6.20;99.90;;;;;;5015635;28;20339;-71
2024/02/29 00:40:41;;;;;;;73.82;40.53;;;6.30;99.90;;;;;;5008627;28;20260;-72
2024/02/29 00:43:09;;;;;;;67.78;38.67;;;6.20;99.90;;;;;;5017192;28;20240;-70
2024/02/29 00:45:36;;;;;;;83.38;37.78;;;6.20;99.90;;;;;;5013109;28;20255;-71
2024/02/29 00:48:04;;;;;;;69.85;37.13;;;6.20;99.90;;;;;;5015956;28;20193;-73
2024/02/29 00:50:31;;;;;;;63.65;37.28;;;6.10;99.90;;;;;;5011986;28;20224;-71
2024/02/29 00:52:57;;;;;;;79.63;38.70;;;6.00;99.90;;;;;;5012292;28;20368;-71
2024/02/29 00:55:24;;;;;;;70.65;36.78;;;6.00;99.90;;;;;;5012441;28;20205;-72
2024/02/29 00:57:51;;;;;;;76.43;38.78;;;5.90;99.90;;;;;;5010406;28;20241;-70
2024/02/29 01:00:20;;;;;;;72.13;36.85;;;5.90;99.90;;;;;;5006887;28;20205;-72
2024/02/29 01:02:47;;;;;;;67.25;35.80;;;5.80;99.90;;;;;;5011750;28;20222;-72
2024/02/29 01:05:15;;;;;;;79.40;41.75;;;5.70;99.90;;;;;;5014437;28;20315;-69
2024/02/29 01:07:41;;;;;;;74.35;40.88;;;5.70;99.90;;;;;;5016548;28;20208;-70
2024/02/29 01:10:11;;;;;;;69.73;35.47;;;5.60;99.90;;;;;;5004091;28;20656;-72
2024/02/29 01:12:39;;;;;;;71.55;36.83;;;5.60;99.90;;;;;;5015851;28;20470;-72
2024/02/29 01:15:07;;;;;;;64.22;35.22;;;5.60;99.90;;;;;;5014277;28;20213;-73
2024/02/29 01:17:36;;;;;;;66.10;37.03;;;5.60;99.90;;;;;;5012444;28;20574;-70
2024/02/29 01:20:05;;;;;;;68.78;36.22;;;5.60;99.90;;;;;;5007552;28;20278;-72
2024/02/29 01:22:32;;;;;;;76.75;39.50;;;5.50;99.90;;;;;;5016947;28;20203;-72
2024/02/29 01:24:59;;;;;;;68.38;36.90;;;5.60;99.90;;;;;;5011969;28;20280;-69
2024/02/29 01:27:26;;;;;;;59.83;31.52;;;5.70;99.90;;;;;;5010692;28;20209;-72
2024/02/29 01:29:53;;;;;;;56.97;32.80;;;5.70;99.90;;;;;;5010870;28;20279;-72
2024/02/29 01:32:20;;;;;;;67.57;35.08;;;5.70;99.90;;;;;;5014274;28;20290;-69
2024/02/29 01:34:49;;;;;;;67.53;37.40;;;5.70;99.90;;;;;;5013815;28;20201;-71
2024/02/29 01:37:16;;;;;;;72.30;38.10;;;5.70;99.90;;;;;;5005383;28;20221;-71
2024/02/29 01:39:43;;;;;;;57.78;32.97;;;5.80;99.90;;;;;;5012696;28;20683;-70
2024/02/29 01:42:11;;;;;;;65.00;37.63;;;5.80;99.90;;;;;;5012894;28;20214;-69
2024/02/29 01:44:46;;;;;;;68.90;38.30;;;5.80;99.90;;;;;;5008221;28;20253;-69
2024/02/29 01:47:13;;;;;;;71.20;35.65;;;5.70;99.90;;;;;;5011911;28;20292;-69
2024/02/29 01:49:42;;;;;;;60.38;31.27;;;5.70;99.90;;;;;;5017334;28;20233;-72
2024/02/29 01:52:11;;;;;;;66.78;31.92;;;5.60;99.90;;;;;;5014706;28;20206;-71
2024/02/29 01:54:39;;;;;;;65.65;34.00;;;5.60;99.90;;;;;;5014304;28;20329;-71
2024/02/29 01:57:07;;;;;;;75.47;35.88;;;5.60;99.90;;;;;;5012832;28;20260;-69
2024/02/29 01:59:36;;;;;;;60.58;29.90;;;5.50;99.90;;;;;;5006014;28;20280;-71
2024/02/29 02:02:03;;;;;;;60.33;32.92;;;5.50;99.90;;;;;;5014578;28;20276;-73
2024/02/29 02:04:30;;;;;;;59.20;33.25;;;5.40;99.90;;;;;;5008656;28;20273;-73
2024/02/29 02:06:58;;;;;;;62.70;35.55;;;5.40;99.90;;;;;;5007163;28;20231;-71
2024/02/29 02:09:26;;;;;;;56.20;30.60;;;5.40;99.90;;;;;;5013053;28;20260;-71
2024/02/29 02:11:53;;;;;;;60.20;30.25;;;5.40;99.90;;;;;;5013857;28;20369;-71
2024/02/29 02:14:20;;;;;;;52.17;28.40;;;5.30;99.90;;;;;;5012612;28;20225;-70
2024/02/29 02:16:48;;;;;;;63.03;30.73;;;5.40;99.90;;;;;;5008826;28;20237;-72
2024/02/29 02:19:16;;;;;;;56.20;32.03;;;5.30;99.90;;;;;;5013847;28;20240;-68
2024/02/29 02:21:45;;;;;;;52.92;29.65;;;5.30;99.90;;;;;;5012774;28;20632;-71
2024/02/29 02:24:12;;;;;;;50.38;29.08;;;5.30;99.90;;;;;;5017130;28;20271;-71
2024/02/29 02:26:39;;;;;;;50.58;28.27;;;5.30;99.90;;;;;;5012316;28;20232;-69
2024/02/29 02:29:06;;;;;;;58.80;27.98;;;5.30;99.90;;;;;;5014025;28;20233;-71
2024/02/29 02:31:33;;;;;;;47.60;27.85;;;5.30;99.90;;;;;;5005599;28;20755;-70
2024/02/29 02:34:00;;;;;;;43.58;27.08;;;5.30;99.90;;;;;;5010325;28;20225;-70
2024/02/29 02:36:27;;;;;;;45.00;24.55;;;5.30;99.90;;;;;;5006783;28;20648;-70
2024/02/29 02:38:55;;;;;;;50.25;26.75;;;5.30;99.90;;;;;;5009519;28;20217;-71
2024/02/29 02:55:28;;;;;;;33.55;19.92;;;5.10;99.90;;;;;;5033017;28;20196;-80
2024/02/29 02:58:44;;;;;;;37.75;23.20;;;5.20;99.90;;;;;;5102160;28;20229;-79
2024/02/29 03:01:33;;;;;;;33.63;21.10;;;5.20;99.90;;;;;;5076800;28;20318;-82
2024/02/29 03:07:54;;;;;;;35.72;21.58;;;5.10;99.90;;;;;;5070560;28;20244;-81
2024/02/29 03:21:06;;;;;;;35.92;20.50;;;5.20;99.90;;;;;;5074882;28;20223;-82
2024/02/29 03:23:51;;;;;;;32.83;20.40;;;5.20;99.90;;;;;;5081156;27;20578;-74
2024/02/29 03:26:18;;;;;;;31.90;20.08;;;5.10;99.90;;;;;;5078018;28;20198;-72
2024/02/29 03:28:45;;;;;;;31.40;18.70;;;5.10;99.90;;;;;;5069378;28;20204;-70
2024/02/29 03:31:13;;;;;;;27.20;16.83;;;5.20;99.90;;;;;;5072981;28;20608;-74
2024/02/29 03:33:40;;;;;;;31.42;18.35;;;5.20;99.90;;;;;;5065105;28;20231;-71
2024/02/29 03:36:07;;;;;;;31.17;18.45;;;5.20;99.90;;;;;;5075274;28;20289;-73
2024/02/29 03:38:35;;;;;;;30.13;20.20;;;5.20;99.90;;;;;;5079929;28;20235;-72
2024/02/29 03:41:06;;;;;;;32.85;18.83;;;5.20;99.90;;;;;;5076045;28;20210;-74
2024/02/29 03:43:34;;;;;;;33.10;17.88;;;5.20;99.90;;;;;;5073322;28;20232;-70
2024/02/29 03:46:01;;;;;;;25.38;16.88;;;5.20;99.90;;;;;;5061098;28;20298;-73
2024/02/29 03:48:28;;;;;;;29.75;17.88;;;5.20;99.90;;;;;;5068487;28;20198;-73
2024/02/29 03:50:55;;;;;;;25.45;17.80;;;5.20;99.90;;;;;;5080517;28;20224;-75
2024/02/29 03:53:22;;;;;;;28.38;17.10;;;5.20;99.90;;;;;;5080299;28;20248;-73
2024/02/29 03:55:49;;;;;;;29.02;15.52;;;5.20;99.90;;;;;;5067953;28;20208;-73
2024/02/29 03:58:18;;;;;;;24.23;17.13;;;5.20;99.90;;;;;;5077642;28;20208;-73
2024/02/29 04:00:45;;;;;;;29.02;17.80;;;5.30;99.90;;;;;;5070784;28;20602;-71
2024/02/29 04:03:12;;;;;;;27.05;16.73;;;5.30;99.90;;;;;;5070515;28;20822;-71
2024/02/29 04:05:39;;;;;;;28.13;15.40;;;5.20;99.90;;;;;;5069310;28;20267;-74
2024/02/29 04:08:11;;;;;;;31.10;17.58;;;5.20;99.90;;;;;;5067733;28;20195;-71
2024/02/29 04:10:38;;;;;;;24.60;14.90;;;5.30;99.90;;;;;;5079265;28;20222;-72
2024/02/29 04:13:05;;;;;;;30.40;16.38;;;5.30;99.90;;;;;;5072167;28;20219;-72
2024/02/29 04:15:33;;;;;;;24.08;16.15;;;5.30;99.90;;;;;;5088024;28;20207;-73
2024/02/29 04:18:01;;;;;;;27.15;16.42;;;5.30;99.90;;;;;;5082906;28;20255;-71
2024/02/29 04:20:28;;;;;;;30.40;18.30;;;5.30;99.90;;;;;;5076617;28;20199;-69
2024/02/29 04:22:55;;;;;;;25.23;14.73;;;5.20;99.90;;;;;;5081254;28;20770;-70
2024/02/29 04:25:23;;;;;;;29.02;16.42;;;5.30;99.90;;;;;;5068649;28;20235;-70
2024/02/29 04:27:50;;;;;;;30.73;17.30;;;5.40;99.90;;;;;;5083417;28;20206;-74
2024/02/29 04:30:18;;;;;;;22.70;16.23;;;5.20;99.90;;;;;;5068775;28;20666;-73
2024/02/29 04:32:46;;;;;;;26.90;15.50;;;5.10;99.90;;;;;;5074578;28;20251;-73
2024/02/29 04:35:13;;;;;;;23.58;15.48;;;5.10;99.90;;;;;;5050618;28;20210;-72
2024/02/29 04:37:40;;;;;;;24.83;13.93;;;5.10;99.90;;;;;;5056864;28;20200;-74
2024/02/29 04:40:10;;;;;;;27.02;15.50;;;5.10;99.90;;;;;;5046875;28;20203;-74
2024/02/29 04:42:36;;;;;;;23.20;15.20;;;5.10;99.90;;;;;;5059574;28;20289;-72
2024/02/29 04:45:04;;;;;;;20.17;12.73;;;5.10;99.90;;;;;;5062736;28;20261;-71
2024/02/29 04:47:31;;;;;;;22.67;15.32;;;5.10;99.90;;;;;;5055100;28;20212;-70
2024/02/29 04:50:00;;;;;;;24.27;15.10;;;5.10;99.90;;;;;;5061918;28;20213;-70
2024/02/29 04:52:27;;;;;;;25.15;15.23;;;5.10;99.90;;;;;;5054978;28;20583;-71
2024/02/29 04:54:54;;;;;;;23.52;16.70;;;5.10;99.90;;;;;;5058286;28;20357;-73
2024/02/29 04:57:20;;;;;;;25.92;15.65;;;5.10;99.90;;;;;;5053852;28;20196;-73
2024/02/29 04:59:47;;;;;;;24.00;15.05;;;5.00;99.90;;;;;;5055992;28;20259;-72
2024/02/29 05:02:15;;;;;;;28.85;15.38;;;5.00;99.90;;;;;;5059032;28;20231;-72
2024/02/29 05:04:42;;;;;;;22.60;14.43;;;5.00;99.90;;;;;;5052346;28;20643;-72
2024/02/29 05:07:11;;;;;;;21.83;13.32;;;5.00;99.90;;;;;;5068157;28;20634;-72
2024/02/29 05:09:39;;;;;;;26.40;14.35;;;5.10;99.90;;;;;;5057624;28;20615;-72
2024/02/29 05:12:06;;;;;;;23.80;15.00;;;5.00;99.90;;;;;;5065540;28;20203;-73
2024/02/29 05:14:33;;;;;;;25.30;14.77;;;5.10;99.90;;;;;;5060023;28;20501;-71
2024/02/29 05:17:00;;;;;;;20.05;13.13;;;5.10;99.90;;;;;;5063277;28;20219;-70
2024/02/29 05:19:27;;;;;;;21.98;14.65;;;5.00;99.90;;;;;;5054803;28;20203;-70
2024/02/29 05:21:55;;;;;;;25.23;14.75;;;5.10;99.90;;;;;;5060760;28;20591;-73
2024/02/29 05:24:24;;;;;;;23.05;14.20;;;5.10;99.90;;;;;;5055805;28;20294;-73
2024/02/29 05:26:51;;;;;;;19.77;13.00;;;5.10;99.90;;;;;;5056826;28;20200;-72
2024/02/29 05:29:18;;;;;;;23.02;14.70;;;5.10;99.90;;;;;;5056940;28;20657;-71
2024/02/29 05:31:50;;;;;;;26.05;14.98;;;5.10;99.90;;;;;;5044976;28;20615;-74
2024/02/29 05:34:17;;;;;;;24.95;15.60;;;5.00;99.90;;;;;;5053169;28;20251;-70
2024/02/29 05:36:44;;;;;;;35.45;16.70;;;5.00;99.90;;;;;;5059942;28;20203;-75
2024/02/29 05:39:12;;;;;;;23.13;13.73;;;5.00;99.90;;;;;;5069506;28;20199;-73
2024/02/29 05:41:41;;;;;;;27.98;15.20;;;5.10;99.90;;;;;;5054647;28;20222;-71
2024/02/29 05:44:08;;;;;;;22.23;14.40;;;5.10;99.90;;;;;;5055526;28;20267;-72
2024/02/29 05:46:35;;;;;;;27.13;16.17;;;5.10;99.90;;;;;;5059077;28;20207;-71
2024/02/29 05:49:02;;;;;;;22.42;15.02;;;5.00;99.90;;;;;;5052551;28;20196;-75
2024/02/29 05:51:29;;;;;;;22.92;14.15;;;5.00;99.90;;;;;;5061339;28;20289;-70
2024/02/29 05:53:56;;;;;;;21.77;14.30;;;5.00;99.90;;;;;;5048907;28;20688;-70
2024/02/29 05:56:23;;;;;;;25.50;14.00;;;5.00;99.90;;;;;;5054522;28;20208;-73
2024/02/29 05:59:00;;;;;;;30.52;15.80;;;5.10;99.90;;;;;;5063036;28;20708;-74
2024/02/29 06:01:28;;;;;;;29.58;17.52;;;5.10;99.90;;;;;;5058847;28;20204;-73
2024/02/29 06:03:55;;;;;;;22.65;14.90;;;5.10;99.90;;;;;;5053800;28;20646;-70
2024/02/29 06:06:23;;;;;;;21.88;14.32;;;5.20;99.90;;;;;;5052960;28;20225;-72
2024/02/29 06:08:50;;;;;;;24.77;15.57;;;5.30;99.90;;;;;;5050521;28;20203;-73
2024/02/29 06:11:17;;;;;;;25.17;15.13;;;5.30;99.90;;;;;;5059314;28;20203;-71
2024/02/29 06:13:45;;;;;;;27.85;14.85;;;5.30;99.90;;;;;;5054504;28;20228;-72
2024/02/29 06:16:14;;;;;;;25.33;14.60;;;5.40;99.90;;;;;;5060084;28;20560;-71
2024/02/29 06:18:42;;;;;;;25.65;15.23;;;5.40;99.90;;;;;;5046745;28;20251;-73
2024/02/29 06:21:15;;;;;;;20.10;13.90;;;5.40;99.90;;;;;;5055822;28;20200;-75
2024/02/29 06:23:42;;;;;;;26.42;14.55;;;5.40;99.90;;;;;;5062219;28;20228;-71
2024/02/29 06:26:09;;;;;;;24.85;15.32;;;5.40;99.90;;;;;;5054005;28;20654;-75
2024/02/29 06:28:36;;;;;;;22.48;14.27;;;5.50;99.90;;;;;;5039855;28;20215;-75
2024/02/29 06:31:04;;;;;;;26.60;17.00;;;5.50;99.90;;;;;;5052094;28;20203;-72
2024/02/29 06:33:32;;;;;;;23.73;14.52;;;5.50;99.90;;;;;;5051400;28;20231;-73
2024/02/29 06:35:59;;;;;;;24.30;15.10;;;5.50;99.90;;;;;;5048204;28;20207;-74
2024/02/29 06:38:26;;;;;;;22.77;14.15;;;5.50;99.90;;;;;;5054955;28;20268;-74
2024/02/29 06:40:53;;;;;;;27.13;14.82;;;5.60;99.90;;;;;;5054398;28;20666;-73
2024/02/29 06:43:26;;;;;;;24.60;13.70;;;5.70;99.90;;;;;;5054553;28;20270;-73
2024/02/29 06:45:53;;;;;;;20.83;12.13;;;5.90;99.90;;;;;;5055183;28;20199;-73
2024/02/29 06:48:21;;;;;;;22.10;13.43;;;5.80;99.90;;;;;;5041414;28;20269;-72
2024/02/29 06:50:49;;;;;;;30.83;15.38;;;6.00;99.90;;;;;;5054024;28;20250;-74
2024/02/29 06:53:16;;;;;;;26.67;14.10;;;6.00;99.90;;;;;;5057670;28;20223;-74
2024/02/29 06:55:43;;;;;;;19.75;13.50;;;6.10;99.90;;;;;;5053035;28;20199;-76
2024/02/29 06:58:11;;;;;;;27.13;14.48;;;6.10;99.90;;;;;;5051064;28;20196;-70
2024/02/29 07:00:39;;;;;;;27.38;14.32;;;6.20;99.90;;;;;;5041547;28;20666;-75
2024/02/29 07:03:06;;;;;;;24.92;15.57;;;6.20;99.90;;;;;;5047309;28;20220;-72
2024/02/29 07:05:40;;;;;;;21.73;13.15;;;6.30;99.90;;;;;;5050318;28;20670;-73
2024/02/29 07:08:10;;;;;;;22.55;14.38;;;6.40;99.90;;;;;;5057867;28;20203;-71
2024/02/29 07:10:37;;;;;;;24.65;13.85;;;6.40;99.90;;;;;;5042938;28;20686;-74
2024/02/29 07:13:04;;;;;;;21.90;13.68;;;6.50;99.90;;;;;;5047435;28;20216;-74
2024/02/29 07:15:32;;;;;;;17.90;12.68;;;6.60;99.90;;;;;;5048245;28;20246;-73
2024/02/29 07:17:59;;;;;;;23.90;14.75;;;6.90;99.90;;;;;;5049262;28;20242;-73
2024/02/29 07:20:26;;;;;;;22.20;13.77;;;7.10;99.90;;;;;;5057556;28;20199;-72
2024/02/29 07:22:53;;;;;;;19.85;13.70;;;7.20;99.90;;;;;;5062172;28;20230;-73
2024/02/29 07:25:21;;;;;;;22.65;14.55;;;7.20;99.90;;;;;;5041854;28;20220;-73
2024/02/29 07:27:49;;;;;;;18.80;10.90;;;7.40;99.90;;;;;;5056743;28;20207;-76
2024/02/29 07:30:16;;;;;;;18.23;12.77;;;7.50;99.90;;;;;;5056518;28;20239;-74
2024/02/29 07:32:43;;;;;;;24.65;15.07;;;7.70;99.90;;;;;;5054022;28;20228;-73
2024/02/29 07:35:13;;;;;;;23.92;14.80;;;7.50;99.90;;;;;;5054437;28;20254;-74
2024/02/29 07:37:41;;;;;;;23.85;13.65;;;7.60;99.90;;;;;;5057580;28;20218;-73
2024/02/29 07:40:08;;;;;;;18.02;14.48;;;7.80;99.90;;;;;;5052766;28;20199;-77
2024/02/29 07:42:38;;;;;;;22.90;13.77;;;8.00;99.90;;;;;;5068327;28;20251;-77
2024/02/29 07:45:07;;;;;;;18.92;13.40;;;8.30;99.90;;;;;;5060480;28;20315;-77
2024/02/29 07:47:33;;;;;;;20.35;12.82;;;8.40;99.90;;;;;;5072411;28;20204;-77
2024/02/29 07:50:03;;;;;;;18.55;12.55;;;8.70;99.90;;;;;;5071150;28;20196;-74
2024/02/29 07:52:30;;;;;;;21.88;13.57;;;8.80;99.90;;;;;;5052528;28;20200;-74
2024/02/29 07:54:57;;;;;;;20.38;12.38;;;9.20;99.90;;;;;;5047806;28;20565;-73
2024/02/29 07:57:24;;;;;;;18.27;12.93;;;9.50;99.90;;;;;;5043638;28;20508;-73
2024/02/29 07:59:53;;;;;;;19.90;13.02;;;9.70;99.90;;;;;;5065875;28;20203;-75
2024/02/29 08:02:20;;;;;;;22.85;14.45;;;9.70;99.90;;;;;;5056461;28;20611;-73
2024/02/29 08:04:47;;;;;;;15.02;11.68;;;10.00;99.90;;;;;;5058091;28;20336;-74
2024/02/29 08:07:14;;;;;;;21.98;13.38;;;10.30;99.90;;;;;;5050544;28;20283;-71
2024/02/29 08:09:41;;;;;;;18.10;11.63;;;10.60;99.90;;;;;;5044316;28;20713;-73
2024/02/29 08:12:09;;;;;;;22.05;12.70;;;10.80;99.90;;;;;;5061374;28;20204;-73
2024/02/29 08:14:35;;;;;;;17.42;12.25;;;11.40;99.50;;;;;;5063889;28;20224;-75
2024/02/29 08:17:04;;;;;;;15.30;11.50;;;11.70;98.20;;;;;;5054650;28;20211;-72
2024/02/29 08:19:31;;;;;;;13.43;8.93;;;11.90;97.00;;;;;;5060999;28;20207;-73
2024/02/29 08:21:58;;;;;;;18.35;11.13;;;12.00;96.30;;;;;;5062228;28;20228;-73
2024/02/29 08:24:25;;;;;;;18.58;11.30;;;12.50;96.10;;;;;;5047724;28;20255;-73
2024/02/29 08:26:52;;;;;;;13.30;8.55;;;12.70;94.50;;;;;;5056647;28;20643;-74
2024/02/29 08:29:19;;;;;;;13.38;10.90;;;13.10;94.70;;;;;;5063330;28;20261;-74
2024/02/29 08:31:46;;;;;;;13.50;9.77;;;13.60;93.00;;;;;;5062823;28;20208;-73
2024/02/29 08:34:15;;;;;;;15.50;10.50;;;14.00;92.80;;;;;;5052525;28;20529;-75
2024/02/29 08:36:42;;;;;;;16.02;10.80;;;14.10;92.00;;;;;;5047612;28;20666;-74
2024/02/29 08:39:10;;;;;;;14.43;8.60;;;13.90;90.90;;;;;;5043596;28;20247;-73
2024/02/29 08:41:36;;;;;;;15.73;9.67;;;14.80;91.20;;;;;;5087657;22;20503;-73
2024/02/29 08:44:03;;;;;;;12.63;9.00;;;14.50;89.90;;;;;;5021233;28;21016;-74
2024/02/29 08:46:30;;;;;;;13.00;9.57;;;14.30;89.60;;;;;;5025205;28;20466;-72
2024/02/29 08:48:57;;;;;;;20.13;9.53;;;15.00;90.40;;;;;;5025086;28;20489;-74
2024/02/29 08:51:26;;;;;;;12.37;10.03;;;15.40;89.00;;;;;;5025140;28;20475;-73
2024/02/29 08:53:53;;;;;;;10.53;8.70;;;15.90;87.70;;;;;;5027984;28;20495;-73
2024/02/29 08:56:20;;;;;;;15.93;8.50;;;15.30;86.20;;;;;;5020834;28;20451;-73
2024/02/29 08:58:47;;;;;;;21.50;8.97;;;15.30;87.80;;;;;;5031294;28;20558;-72
2024/02/29 09:01:14;;;;;;;15.17;8.30;;;15.20;87.30;;;;;;5026997;28;20446;-73
2024/02/29 09:03:41;;;;;;;13.00;8.10;;;15.60;86.40;;;;;;5029009;28;20485;-73
2024/02/29 09:06:08;;;;;;;13.13;8.80;;;15.40;86.20;;;;;;5034860;28;20447;-72
2024/02/29 09:08:36;;;;;;;10.27;8.13;;;15.30;87.10;;;;;;5028542;28;20489;-74
2024/02/29 09:11:04;;;;;;;14.10;9.40;;;15.40;86.40;;;;;;5022791;28;20535;-73
2024/02/29 09:13:30;;;;;;;10.30;7.63;;;14.80;86.20;;;;;;5030921;28;20517;-75
2024/02/29 09:15:57;;;;;;;14.38;8.52;;;14.50;86.50;;;;;;5026480;28;20484;-73
2024/02/29 09:18:25;;;;;;;9.02;7.22;;;14.10;87.80;;;;;;5026744;28;20198;-74
2024/02/29 09:20:52;;;;;;;8.55;6.60;;;14.00;89.30;;;;;;5025316;28;20212;-72
2024/02/29 09:23:19;;;;;;;11.18;7.60;;;13.90;90.00;;;;;;5024780;28;20766;-74
2024/02/29 09:25:47;;;;;;;12.70;9.13;;;13.60;90.00;;;;;;5032578;28;20205;-73
2024/02/29 09:28:14;;;;;;;9.13;6.20;;;13.50;90.50;;;;;;5033716;28;20201;-73
2024/02/29 09:30:42;;;;;;;10.90;8.05;;;13.40;90.70;;;;;;5034039;28;20201;-72
2024/02/29 09:33:09;;;;;;;10.15;7.50;;;13.20;90.90;;;;;;5026312;28;20228;-73
2024/02/29 09:35:36;;;;;;;10.27;6.63;;;13.30;91.00;;;;;;5032092;28;20259;-73
2024/02/29 09:38:04;;;;;;;10.18;7.05;;;13.20;91.20;;;;;;5027993;28;20262;-73
2024/02/29 09:40:31;;;;;;;8.57;6.60;;;13.10;91.30;;;;;;5024530;28;20205;-75
2024/02/29 09:43:00;;;;;;;8.10;6.03;;;13.20;91.40;;;;;;5027237;28;20279;-73
2024/02/29 09:45:27;;;;;;;12.07;8.25;;;13.30;91.00;;;;;;5024091;28;20225;-74
2024/02/29 09:47:54;;;;;;;10.40;6.90;;;13.10;91.40;;;;;;5022336;28;20200;-74
2024/02/29 09:50:21;;;;;;;8.93;6.72;;;13.20;91.10;;;;;;5031195;28;20204;-74
2024/02/29 09:52:53;;;;;;;10.57;6.70;;;13.30;90.80;;;;;;5030663;28;20275;-74
2024/02/29 09:55:20;;;;;;;9.13;5.70;;;12.80;91.10;;;;;;5022189;28;20232;-72
2024/02/29 09:57:47;;;;;;;11.18;6.35;;;12.70;91.00;;;;;;5030437;28;20285;-73
2024/02/29 10:00:17;;;;;;;8.65;6.53;;;12.80;91.10;;;;;;5024208;28;20588;-74
2024/02/29 10:02:46;;;;;;;17.17;7.97;;;13.10;91.00;;;;;;5027568;28;20996;-72
2024/02/29 10:05:13;;;;;;;8.65;6.13;;;13.40;90.70;;;;;;5025622;28;20637;-73
2024/02/29 10:07:45;;;;;;;7.80;5.70;;;13.40;90.40;;;;;;5030563;28;20258;-72
2024/02/29 10:10:13;;;;;;;9.95;6.28;;;13.50;90.40;;;;;;5019586;28;20271;-72
2024/02/29 10:12:40;;;;;;;8.55;6.05;;;13.50;90.50;;;;;;5023120;28;20362;-72
2024/02/29 10:15:10;;;;;;;8.15;5.75;;;13.40;90.40;;;;;;5028068;28;20671;-73
2024/02/29 10:17:38;;;;;;;7.32;5.43;;;13.30;90.20;;;;;;5026432;28;20209;-72
2024/02/29 10:20:08;;;;;;;9.13;6.40;;;13.50;90.40;;;;;;5031808;28;20209;-72
2024/02/29 10:22:37;;;;;;;9.75;5.15;;;13.10;90.20;;;;;;5026284;28;20209;-73
2024/02/29 10:25:10;;;;;;;8.55;5.95;;;13.10;90.40;;;;;;5029322;28;20229;-73
2024/02/29 10:27:37;;;;;;;8.38;6.30;;;13.10;90.50;;;;;;5032220;28;20208;-72
2024/02/29 10:30:08;;;;;;;13.00;7.32;;;13.20;90.40;;;;;;5031552;28;20213;-72
2024/02/29 10:32:35;;;;;;;8.45;6.47;;;13.50;90.30;;;;;;5031667;28;20208;-73
2024/02/29 10:35:18;;;;;;;7.40;6.18;;;13.10;90.00;;;;;;5024608;28;20208;-74
2024/02/29 10:37:46;;;;;;;8.77;5.70;;;13.30;90.30;;;;;;5027908;28;20255;-73
2024/02/29 10:40:13;;;;;;;7.80;6.45;;;13.60;90.10;;;;;;5025044;28;20200;-73
2024/02/29 10:42:41;;;;;;;5.72;4.55;;;13.30;89.80;;;;;;5031329;28;20290;-73
2024/02/29 10:45:13;;;;;;;8.93;6.93;;;13.40;90.20;;;;;;5031346;28;20259;-73
2024/02/29 10:47:45;;;;;;;6.47;5.70;;;13.40;90.40;;;;;;5022217;28;20201;-73
2024/02/29 10:50:19;;;;;;;10.45;5.32;;;13.60;90.40;;;;;;5027033;28;20258;-72
2024/02/29 10:52:50;;;;;;;9.98;6.38;;;13.50;89.90;;;;;;5028459;28;20307;-72
2024/02/29 10:55:25;;;;;;;8.65;7.20;;;13.40;90.30;;;;;;5031126;28;20622;-73
2024/02/29 10:58:02;;;;;;;10.10;6.28;;;13.30;90.20;;;;;;5026128;28;20318;-73
2024/02/29 11:00:30;;;;;;;8.13;5.80;;;13.20;90.30;;;;;;5029538;28;20280;-72
2024/02/29 11:02:58;;;;;;;10.48;7.20;;;13.40;90.20;;;;;;5026089;28;20320;-73
2024/02/29 11:05:27;;;;;;;9.32;7.13;;;13.50;90.00;;;;;;5025289;28;20328;-72
2024/02/29 11:07:54;;;;;;;7.75;6.93;;;12.80;89.80;;;;;;5029559;28;20204;-72
2024/02/29 11:10:21;;;;;;;8.57;7.22;;;12.90;90.70;;;;;;5026219;28;20266;-72
2024/02/29 11:12:49;;;;;;;11.23;7.80;;;12.70;90.60;;;;;;5029438;28;20252;-73
2024/02/29 11:15:16;;;;;;;6.30;5.55;;;12.50;91.00;;;;;;5031030;28;20583;-73
2024/02/29 11:17:45;;;;;;;14.80;9.40;;;12.50;91.00;;;;;;5024747;28;20263;-73
2024/02/29 11:20:20;;;;;;;11.05;6.75;;;13.00;91.10;;;;;;5024289;28;20209;-72
2024/02/29 11:22:49;;;;;;;9.18;6.68;;;13.20;90.60;;;;;;5029856;28;20232;-73
2024/02/29 11:25:22;;;;;;;7.88;6.90;;;13.20;90.60;;;;;;5031664;28;20713;-72
2024/02/29 11:27:50;;;;;;;8.18;5.90;;;13.50;90.60;;;;;;5031492;28;20216;-72
2024/02/29 11:30:23;;;;;;;10.35;6.22;;;13.40;90.40;;;;;;5027383;28;20282;-71
2024/02/29 11:32:51;;;;;;;7.47;5.93;;;13.30;90.60;;;;;;5027524;28;20221;-73
2024/02/29 11:35:18;;;;;;;10.18;6.10;;;13.30;90.60;;;;;;5023668;28;20275;-71
2024/02/29 11:37:46;;;;;;;11.85;7.10;;;13.30;91.00;;;;;;5031741;28;20534;-73
2024/02/29 11:40:16;;;;;;;11.98;5.90;;;13.20;90.90;;;;;;5026107;28;20206;-72
2024/02/29 11:42:43;;;;;;;7.18;6.00;;;13.20;91.10;;;;;;5025683;28;20224;-74
2024/02/29 11:45:21;;;;;;;6.70;4.93;;;13.20;91.40;;;;;;5027617;28;20256;-72
2024/02/29 11:47:49;;;;;;;7.72;5.78;;;13.20;91.50;;;;;;5031063;28;20253;-72
2024/02/29 11:50:17;;;;;;;9.68;5.20;;;13.30;91.40;;;;;;5034458;28;20204;-72
2024/02/29 11:52:44;;;;;;;6.97;5.22;;;13.50;91.20;;;;;;5028175;28;20663;-74
2024/02/29 11:55:12;;;;;;;7.95;6.13;;;13.50;91.30;;;;;;5032922;28;20312;-74
2024/02/29 11:57:42;;;;;;;8.80;7.18;;;13.70;91.30;;;;;;5025704;28;20240;-72
2024/02/29 12:00:10;;;;;;;8.68;6.63;;;13.90;91.30;;;;;;5034580;28;20281;-74
2024/02/29 12:02:38;;;;;;;9.30;8.02;;;13.80;91.00;;;;;;5027320;28;20700;-71
2024/02/29 12:05:06;;;;;;;9.85;7.45;;;14.10;91.00;;;;;;5033412;28;20227;-74
2024/02/29 12:07:33;;;;;;;9.48;7.15;;;14.20;90.90;;;;;;5032470;28;20296;-73
2024/02/29 12:10:01;;;;;;;9.55;7.00;;;14.50;90.80;;;;;;5034957;28;20232;-73
2024/02/29 12:12:29;;;;;;;12.35;7.30;;;14.50;90.80;;;;;;5032015;28;20629;-73
2024/02/29 12:14:57;;;;;;;8.93;7.50;;;14.50;90.80;;;;;;5025947;28;20212;-72
2024/02/29 12:17:26;;;;;;;8.40;6.85;;;14.60;90.70;;;;;;5034828;28;20295;-72
2024/02/29 12:19:55;;;;;;;9.17;7.00;;;14.50;90.90;;;;;;5031106;28;20234;-73
2024/02/29 12:22:22;;;;;;;8.68;6.72;;;14.50;91.00;;;;;;5027479;28;20443;-72
2024/02/29 12:24:49;;;;;;;9.15;7.57;;;14.10;91.20;;;;;;5026291;28;20291;-72
2024/02/29 12:27:16;;;;;;;10.43;7.85;;;14.10;91.20;;;;;;5030406;28;20216;-72
2024/02/29 12:29:43;;;;;;;10.60;8.10;;;13.80;91.40;;;;;;5027141;28;20288;-73
2024/02/29 12:32:12;;;;;;;10.55;8.90;;;13.80;91.50;;;;;;5034512;28;20274;-72
2024/02/29 12:34:40;;;;;;;11.68;9.75;;;13.70;91.50;;;;;;5033493;28;20299;-72
2024/02/29 12:37:10;;;;;;;10.88;8.90;;;13.70;92.00;;;;;;5030898;28;20250;-73
2024/02/29 12:39:37;;;;;;;10.70;8.50;;;13.50;91.50;;;;;;5029773;28;20212;-72
2024/02/29 12:42:04;;;;;;;10.70;8.25;;;13.60;91.70;;;;;;5025346;28;20210;-73
2024/02/29 12:44:32;;;;;;;15.82;10.45;;;13.50;91.50;;;;;;5029290;28;20235;-73
2024/02/29 12:46:59;;;;;;;10.32;9.15;;;13.30;91.50;;;;;;5027771;28;20204;-72
2024/02/29 12:49:27;;;;;;;12.63;8.23;;;13.20;91.70;;;;;;5032031;28;20673;-74
2024/02/29 12:51:54;;;;;;;9.82;8.20;;;13.30;92.00;;;;;;5028538;28;20244;-73
2024/02/29 12:54:21;;;;;;;10.63;8.25;;;13.30;92.00;;;;;;5025566;28;20225;-73
2024/02/29 12:56:49;;;;;;;9.68;8.10;;;13.30;92.10;;;;;;5030228;28;20211;-73
2024/02/29 12:59:17;;;;;;;11.90;9.85;;;13.60;92.50;;;;;;5030223;28;20211;-73
2024/02/29 13:01:44;;;;;;;10.77;8.32;;;13.70;91.90;;;;;;5030889;28;20296;-73
2024/02/29 13:04:11;;;;;;;12.38;9.60;;;13.90;91.90;;;;;;5025341;28;20224;-72
2024/02/29 13:06:39;;;;;;;14.27;9.70;;;14.00;91.50;;;;;;5028869;28;20290;-73
2024/02/29 13:09:07;;;;;;;12.40;8.85;;;14.20;91.50;;;;;;5033724;28;20215;-72
2024/02/29 13:11:34;;;;;;;12.57;9.13;;;14.20;91.30;;;;;;5033846;28;20291;-72